createdAt,value
2022-11-20T00:01:43.769Z,99.90
2022-11-20T00:04:13.205Z,99.90
2022-11-20T00:06:41.446Z,99.90
2022-11-20T00:09:13.060Z,99.90
2022-11-20T00:11:41.506Z,99.90
2022-11-20T00:14:11.887Z,99.90
2022-11-20T00:16:40.318Z,99.90
2022-11-20T00:19:09.271Z,99.90
2022-11-20T00:21:37.836Z,99.90
2022-11-20T00:24:06.621Z,99.90
2022-11-20T00:26:36.566Z,99.90
2022-11-20T00:29:05.681Z,99.90
2022-11-20T00:31:35.767Z,99.90
2022-11-20T00:34:04.129Z,99.90
2022-11-20T00:36:35.303Z,99.90
2022-11-20T00:39:06.109Z,99.90
2022-11-20T00:41:37.775Z,99.90
2022-11-20T00:44:07.053Z,99.90
2022-11-20T00:46:38.374Z,99.90
2022-11-20T00:49:07.103Z,99.90
2022-11-20T00:51:41.554Z,99.90
2022-11-20T00:54:12.134Z,99.90
2022-11-20T00:56:44.261Z,99.90
2022-11-20T00:59:13.058Z,99.90
2022-11-20T01:01:41.637Z,99.90
2022-11-20T01:04:10.980Z,99.90
2022-11-20T01:06:41.976Z,99.90
2022-11-20T01:09:14.562Z,99.90
2022-11-20T01:11:46.461Z,99.90
2022-11-20T01:14:17.430Z,99.90
2022-11-20T01:16:49.207Z,99.90
2022-11-20T01:19:20.083Z,99.90
2022-11-20T01:21:56.111Z,99.90
2022-11-20T01:24:25.298Z,99.90
2022-11-20T01:26:55.097Z,99.90
2022-11-20T01:29:26.996Z,99.90
2022-11-20T01:31:55.877Z,99.90
2022-11-20T01:34:25.990Z,99.90
2022-11-20T01:36:55.088Z,99.90
2022-11-20T01:39:25.525Z,99.90
2022-11-20T01:42:16.066Z,99.90
2022-11-20T01:44:56.527Z,99.90
2022-11-20T01:47:31.720Z,99.90
2022-11-20T01:50:05.217Z,99.90
2022-11-20T01:52:44.946Z,99.90
2022-11-20T01:55:19.205Z,99.90
2022-11-20T01:57:51.110Z,99.90
2022-11-20T02:00:21.648Z,99.90
2022-11-20T02:02:55.812Z,99.90
2022-11-20T02:05:27.996Z,99.90
2022-11-20T02:07:58.758Z,99.90
2022-11-20T02:10:28.285Z,99.90
2022-11-20T02:13:15.392Z,99.90
2022-11-20T02:15:44.524Z,99.90
2022-11-20T02:18:15.957Z,99.90
2022-11-20T02:20:46.318Z,99.90
2022-11-20T02:23:19.607Z,99.90
2022-11-20T02:25:50.054Z,99.90
2022-11-20T02:28:19.756Z,99.90
2022-11-20T02:30:48.178Z,99.90
2022-11-20T02:33:16.725Z,99.90
2022-11-20T02:35:47.111Z,99.90
2022-11-20T02:38:16.458Z,99.90
2022-11-20T02:40:45.212Z,99.90
2022-11-20T02:43:14.969Z,99.90
2022-11-20T02:45:43.560Z,99.90
2022-11-20T02:48:12.282Z,99.90
2022-11-20T02:50:42.270Z,99.90
2022-11-20T02:53:10.727Z,99.90
2022-11-20T02:55:39.165Z,99.90
2022-11-20T02:58:08.631Z,99.90
2022-11-20T03:00:42.416Z,99.90
2022-11-20T03:03:10.687Z,99.90
2022-11-20T03:05:39.108Z,99.90
2022-11-20T03:08:07.565Z,99.90
2022-11-20T03:10:38.980Z,99.90
2022-11-20T03:13:07.156Z,99.90
2022-11-20T03:15:36.163Z,99.90
2022-11-20T03:18:06.968Z,99.90
2022-11-20T03:20:36.060Z,99.90
2022-11-20T03:23:04.970Z,99.90
2022-11-20T03:25:33.520Z,99.90
2022-11-20T03:28:02.043Z,99.90
2022-11-20T03:30:31.139Z,99.90
2022-11-20T03:33:00.959Z,99.90
2022-11-20T03:35:31.649Z,99.90
2022-11-20T03:38:00.920Z,99.90
2022-11-20T03:40:29.376Z,99.90
2022-11-20T03:42:57.603Z,99.90
2022-11-20T03:45:25.941Z,99.90
2022-11-20T03:47:54.728Z,99.90
2022-11-20T03:50:23.481Z,99.90
2022-11-20T03:52:53.389Z,99.90
2022-11-20T03:55:22.237Z,99.90
2022-11-20T03:57:50.450Z,99.90
2022-11-20T04:00:19.099Z,99.90
2022-11-20T04:02:47.685Z,99.90
2022-11-20T04:05:17.225Z,99.90
2022-11-20T04:07:45.728Z,99.90
2022-11-20T04:10:15.624Z,99.90
2022-11-20T04:12:43.894Z,99.90
2022-11-20T04:15:12.596Z,99.90
2022-11-20T04:17:40.854Z,99.90
2022-11-20T04:20:11.341Z,99.90
2022-11-20T04:22:39.550Z,99.90
2022-11-20T04:25:08.562Z,99.90
2022-11-20T04:27:38.417Z,99.90
2022-11-20T04:30:07.949Z,99.90
2022-11-20T04:32:36.047Z,99.90
2022-11-20T04:35:04.607Z,99.90
2022-11-20T04:37:32.960Z,99.90
2022-11-20T04:40:02.796Z,99.90
2022-11-20T04:42:31.356Z,99.90
2022-11-20T04:45:02.385Z,99.90
2022-11-20T04:47:31.210Z,99.90
2022-11-20T04:50:00.991Z,99.90
2022-11-20T04:52:29.283Z,99.90
2022-11-20T04:54:57.717Z,99.90
2022-11-20T04:57:25.993Z,99.90
2022-11-20T04:59:54.800Z,99.90
2022-11-20T05:02:26.036Z,99.90
2022-11-20T05:04:54.567Z,99.90
2022-11-20T05:07:23.182Z,99.90
2022-11-20T05:09:51.736Z,99.90
2022-11-20T05:12:20.236Z,99.90
2022-11-20T05:14:49.012Z,99.90
2022-11-20T05:17:17.608Z,99.90
2022-11-20T05:19:50.597Z,99.90
2022-11-20T05:22:21.864Z,99.90
2022-11-20T05:24:52.047Z,99.90
2022-11-20T05:27:20.554Z,99.90
2022-11-20T05:29:49.219Z,99.90
2022-11-20T05:32:18.128Z,99.90
2022-11-20T05:34:51.149Z,99.90
2022-11-20T05:37:20.029Z,99.90
2022-11-20T05:39:48.321Z,99.90
2022-11-20T05:42:34.875Z,99.90
2022-11-20T05:45:05.274Z,99.90
2022-11-20T05:47:36.825Z,99.90
2022-11-20T05:50:14.589Z,99.90
2022-11-20T05:52:43.489Z,99.90
2022-11-20T05:55:12.976Z,99.90
2022-11-20T05:57:41.772Z,99.90
2022-11-20T06:00:11.571Z,99.90
2022-11-20T06:02:40.284Z,99.90
2022-11-20T06:05:13.468Z,99.90
2022-11-20T06:07:42.119Z,99.90
2022-11-20T06:10:11.566Z,99.90
2022-11-20T06:12:39.929Z,99.90
2022-11-20T06:15:11.147Z,99.90
2022-11-20T06:17:39.493Z,99.90
2022-11-20T06:20:14.023Z,99.90
2022-11-20T06:22:42.723Z,99.90
2022-11-20T06:25:12.224Z,99.90
2022-11-20T06:27:41.054Z,99.90
2022-11-20T06:30:11.354Z,99.90
2022-11-20T06:32:42.350Z,99.90
2022-11-20T06:35:15.593Z,99.90
2022-11-20T06:37:45.469Z,99.90
2022-11-20T06:40:16.218Z,99.90
2022-11-20T06:42:46.636Z,99.90
2022-11-20T06:45:23.773Z,99.90
2022-11-20T06:50:39.459Z,99.90
2022-11-20T06:53:08.350Z,99.90
2022-11-20T06:55:40.545Z,99.90
2022-11-20T06:58:13.016Z,99.90
2022-11-20T07:00:42.531Z,99.90
2022-11-20T07:03:12.860Z,99.90
2022-11-20T07:05:44.973Z,99.90
2022-11-20T07:08:15.052Z,99.90
2022-11-20T07:10:45.074Z,99.90
2022-11-20T07:13:13.464Z,99.90
2022-11-20T07:15:46.949Z,99.90
2022-11-20T07:18:17.485Z,99.90
2022-11-20T07:20:48.912Z,99.90
2022-11-20T07:23:18.424Z,99.90
2022-11-20T07:25:47.096Z,99.90
2022-11-20T07:28:17.189Z,99.90
2022-11-20T07:30:51.298Z,99.90
2022-11-20T07:33:22.220Z,99.90
2022-11-20T07:35:54.019Z,99.90
2022-11-20T07:38:22.752Z,99.90
2022-11-20T07:40:55.367Z,99.90
2022-11-20T07:43:24.692Z,99.90
2022-11-20T07:45:53.316Z,99.90
2022-11-20T07:48:22.329Z,99.90
2022-11-20T07:50:55.752Z,99.90
2022-11-20T07:53:26.750Z,99.90
2022-11-20T07:56:10.332Z,99.90
2022-11-20T07:58:41.083Z,99.90
2022-11-20T08:01:15.942Z,99.90
2022-11-20T08:04:03.317Z,99.90
2022-11-20T08:06:59.007Z,99.90
2022-11-20T08:09:34.073Z,99.90
2022-11-20T08:12:31.514Z,99.90
2022-11-20T08:18:15.438Z,99.90
2022-11-20T08:20:41.378Z,99.90
2022-11-20T08:23:25.246Z,99.90
2022-11-20T08:26:03.483Z,99.90
2022-11-20T08:28:44.644Z,99.90
2022-11-20T08:31:17.349Z,99.90
2022-11-20T08:34:02.996Z,99.90
2022-11-20T08:36:42.237Z,99.90
2022-11-20T08:39:20.056Z,99.90
2022-11-20T08:41:52.213Z,99.90
2022-11-20T08:44:22.520Z,99.90
2022-11-20T08:46:55.866Z,99.90
2022-11-20T08:49:25.687Z,99.90
2022-11-20T08:52:03.064Z,99.90
2022-11-20T08:54:36.549Z,99.90
2022-11-20T08:57:06.441Z,99.90
2022-11-20T09:00:09.013Z,99.90
2022-11-20T09:02:52.334Z,99.90
2022-11-20T09:05:22.698Z,99.90
2022-11-20T09:07:53.595Z,99.90
2022-11-20T09:10:25.084Z,99.90
2022-11-20T09:12:54.763Z,99.90
2022-11-20T09:15:23.594Z,99.90
2022-11-20T09:17:55.254Z,99.90
2022-11-20T09:20:25.043Z,99.90
2022-11-20T09:22:54.464Z,99.90
2022-11-20T09:25:32.287Z,99.90
2022-11-20T09:28:03.527Z,99.90
2022-11-20T09:30:35.209Z,99.90
2022-11-20T09:33:06.003Z,99.90
2022-11-20T09:35:52.965Z,99.90
2022-11-20T09:38:29.434Z,99.90
2022-11-20T09:41:21.528Z,99.90
2022-11-20T09:44:28.220Z,99.90
2022-11-20T09:47:08.870Z,99.90
2022-11-20T09:50:17.662Z,99.90
2022-11-20T09:52:58.350Z,99.90
2022-11-20T09:55:28.582Z,99.90
2022-11-20T09:58:01.761Z,99.90
2022-11-20T10:00:31.673Z,99.90
2022-11-20T10:03:07.503Z,99.90
2022-11-20T10:05:42.131Z,99.90
2022-11-20T10:08:20.175Z,99.90
2022-11-20T10:10:53.815Z,99.90
2022-11-20T10:13:43.611Z,99.90
2022-11-20T10:16:26.050Z,99.90
2022-11-20T10:19:13.792Z,99.90
2022-11-20T10:21:58.951Z,99.90
2022-11-20T10:24:45.508Z,99.90
2022-11-20T10:27:39.591Z,99.90
2022-11-20T10:30:14.413Z,99.90
2022-11-20T10:32:45.439Z,99.90
2022-11-20T10:35:23.936Z,99.90
2022-11-20T10:37:59.822Z,99.90
2022-11-20T10:40:39.774Z,99.90
2022-11-20T10:43:25.463Z,99.90
2022-11-20T10:46:01.005Z,99.90
2022-11-20T10:48:30.455Z,99.90
2022-11-20T10:51:13.319Z,99.90
2022-11-20T10:54:14.955Z,99.90
2022-11-20T10:56:50.151Z,99.90
2022-11-20T10:59:43.914Z,99.90
2022-11-20T11:02:33.600Z,99.90
2022-11-20T11:05:13.072Z,99.90
2022-11-20T11:07:44.247Z,99.90
2022-11-20T11:26:13.226Z,99.90
2022-11-20T11:29:06.570Z,99.90
2022-11-20T11:32:28.387Z,99.90
2022-11-20T11:35:29.071Z,99.90
2022-11-20T11:38:12.796Z,99.90
2022-11-20T11:40:45.664Z,99.90
2022-11-20T11:43:43.231Z,99.90
2022-11-20T11:46:38.602Z,99.90
2022-11-20T11:49:29.630Z,99.90
2022-11-20T11:52:16.184Z,99.90
2022-11-20T11:54:52.033Z,99.90
2022-11-20T11:57:35.346Z,99.90
2022-11-20T12:05:20.555Z,99.90
2022-11-20T12:08:00.449Z,99.90
2022-11-20T12:17:32.928Z,99.90
2022-11-20T12:20:07.257Z,99.90
2022-11-20T12:22:48.743Z,99.90
2022-11-20T12:25:39.568Z,99.90
2022-11-20T12:28:31.829Z,99.90
2022-11-20T12:31:17.634Z,99.90
2022-11-20T12:34:00.038Z,99.90
2022-11-20T12:36:39.712Z,99.90
2022-11-20T12:39:40.266Z,99.90
2022-11-20T12:43:04.745Z,99.90
2022-11-20T12:46:10.861Z,97.90
2022-11-20T12:48:54.056Z,95.00
2022-11-20T12:51:49.558Z,90.10
2022-11-20T12:54:46.762Z,88.60
2022-11-20T12:57:20.725Z,82.80
2022-11-20T13:00:10.877Z,91.00
2022-11-20T13:03:09.011Z,92.40
2022-11-20T13:05:45.752Z,94.30
2022-11-20T13:08:24.925Z,97.40
2022-11-20T13:11:02.399Z,99.90
2022-11-20T13:13:38.481Z,99.90
2022-11-20T13:16:14.816Z,99.90
2022-11-20T13:18:46.205Z,99.90
2022-11-20T13:21:19.827Z,99.90
2022-11-20T13:23:49.244Z,99.90
2022-11-20T13:26:22.334Z,99.90
2022-11-20T13:29:06.057Z,99.90
2022-11-20T13:31:54.627Z,99.90
2022-11-20T13:34:29.933Z,99.90
2022-11-20T13:37:14.726Z,99.90
2022-11-20T13:39:48.134Z,99.90
2022-11-20T13:42:28.728Z,99.90
2022-11-20T13:45:03.011Z,99.90
2022-11-20T13:47:32.958Z,99.90
2022-11-20T13:50:07.274Z,99.90
2022-11-20T13:52:49.087Z,99.90
2022-11-20T13:55:28.213Z,99.90
2022-11-20T13:58:21.435Z,99.90
2022-11-20T14:00:57.307Z,99.90
2022-11-20T14:04:04.414Z,99.90
2022-11-20T14:06:32.946Z,99.90
2022-11-20T14:09:03.038Z,99.90
2022-11-20T14:11:34.445Z,99.90
2022-11-20T14:14:06.362Z,99.90
2022-11-20T14:16:40.526Z,99.90
2022-11-20T14:19:33.126Z,99.90
2022-11-20T14:22:22.772Z,99.90
2022-11-20T14:25:03.738Z,99.90
2022-11-20T14:30:42.184Z,99.90
2022-11-20T14:33:14.420Z,99.90
2022-11-20T14:35:50.339Z,99.90
2022-11-20T14:38:22.145Z,99.90
2022-11-20T14:40:51.744Z,99.90
2022-11-20T14:43:34.859Z,99.90
2022-11-20T14:46:11.387Z,99.90
2022-11-20T14:48:54.852Z,99.90
2022-11-20T14:52:10.092Z,99.90
2022-11-20T14:54:49.101Z,99.90
2022-11-20T15:00:33.755Z,99.90
2022-11-20T15:06:33.158Z,99.90
2022-11-20T15:13:25.692Z,99.90
2022-11-20T15:19:30.514Z,99.90
2022-11-20T15:22:35.129Z,99.90
2022-11-20T15:43:34.266Z,99.90
2022-11-20T15:52:26.452Z,99.90
2022-11-20T15:55:40.117Z,99.90
2022-11-20T15:58:27.005Z,99.90
2022-11-20T16:01:18.229Z,99.90
2022-11-20T16:03:53.098Z,99.90
2022-11-20T16:06:45.588Z,99.90
2022-11-20T16:09:15.726Z,99.90
2022-11-20T16:15:13.394Z,99.90
2022-11-20T16:17:46.231Z,99.90
2022-11-20T16:20:33.573Z,99.90
2022-11-20T16:23:37.970Z,99.90
2022-11-20T16:26:13.938Z,99.90
2022-11-20T16:33:21.995Z,99.90
2022-11-20T16:36:15.831Z,99.90
2022-11-20T16:38:50.902Z,99.90
2022-11-20T16:41:19.733Z,99.90
2022-11-20T16:44:32.327Z,99.90
2022-11-20T16:47:01.301Z,99.90
2022-11-20T16:52:28.821Z,99.90
2022-11-20T16:55:02.241Z,99.90
2022-11-20T16:57:32.945Z,99.90
2022-11-20T17:00:11.585Z,99.90
2022-11-20T17:07:01.518Z,99.90
2022-11-20T17:15:50.008Z,99.90
2022-11-20T17:18:18.391Z,99.90
2022-11-20T17:20:53.337Z,99.90
2022-11-20T17:23:40.521Z,99.90
2022-11-20T17:26:17.071Z,99.90
2022-11-20T17:32:49.857Z,99.90
2022-11-20T17:38:43.043Z,99.90
2022-11-20T17:41:46.870Z,99.90
2022-11-20T17:44:17.879Z,99.90
2022-11-20T17:46:46.106Z,99.90
2022-11-20T17:49:22.840Z,99.90
2022-11-20T17:51:55.489Z,99.90
2022-11-20T17:54:26.392Z,99.90
2022-11-20T17:57:14.520Z,99.90
2022-11-20T17:59:45.758Z,99.90
2022-11-20T18:02:14.990Z,99.90
2022-11-20T18:04:44.946Z,99.90
2022-11-20T18:07:13.350Z,99.90
2022-11-20T18:09:41.568Z,99.90
2022-11-20T18:12:09.973Z,99.90
2022-11-20T18:14:43.174Z,99.90
2022-11-20T18:17:19.503Z,99.90
2022-11-20T18:20:21.783Z,99.90
2022-11-20T18:22:50.005Z,99.90
2022-11-20T18:25:21.789Z,99.90
2022-11-20T18:27:54.214Z,99.90
2022-11-20T18:30:26.133Z,99.90
2022-11-20T18:32:58.694Z,99.90
2022-11-20T18:35:32.729Z,99.90
2022-11-20T18:38:01.314Z,99.90
2022-11-20T18:40:31.209Z,99.90
2022-11-20T18:43:19.477Z,99.90
2022-11-20T18:46:00.439Z,99.90
2022-11-20T18:48:30.667Z,99.90
2022-11-20T18:51:22.642Z,99.90
2022-11-20T18:53:58.843Z,99.90
2022-11-20T18:56:32.538Z,99.90
2022-11-20T18:59:05.558Z,99.90
2022-11-20T19:01:38.369Z,99.90
2022-11-20T19:04:12.018Z,99.90
2022-11-20T19:06:51.960Z,99.90
2022-11-20T19:09:27.235Z,99.90
2022-11-20T19:11:59.331Z,99.90
2022-11-20T19:14:37.021Z,99.90
2022-11-20T19:17:08.849Z,99.90
2022-11-20T19:19:50.299Z,99.90
2022-11-20T19:22:38.443Z,99.90
2022-11-20T19:25:11.208Z,99.90
2022-11-20T19:27:46.735Z,99.90
2022-11-20T19:30:20.805Z,99.90
2022-11-20T19:32:51.046Z,99.90
2022-11-20T19:35:27.010Z,99.90
2022-11-20T19:38:00.238Z,99.90
2022-11-20T19:40:32.998Z,99.90
2022-11-20T19:43:04.792Z,99.90
2022-11-20T19:45:33.906Z,99.90
2022-11-20T19:48:07.950Z,99.90
2022-11-20T19:50:40.702Z,99.90
2022-11-20T19:53:18.522Z,99.90
2022-11-20T19:55:58.932Z,99.90
2022-11-20T19:58:30.014Z,99.90
2022-11-20T20:01:07.353Z,99.90
2022-11-20T20:03:38.188Z,99.90
2022-11-20T20:06:13.129Z,99.90
2022-11-20T20:08:47.790Z,99.90
2022-11-20T20:11:20.888Z,99.90
2022-11-20T20:13:52.767Z,99.90
2022-11-20T20:16:25.394Z,99.90
2022-11-20T20:19:00.121Z,99.90
2022-11-20T20:21:31.759Z,99.90
2022-11-20T20:24:09.539Z,99.90
2022-11-20T20:26:40.043Z,99.90
2022-11-20T20:29:10.970Z,99.90
2022-11-20T20:31:41.641Z,99.90
2022-11-20T20:34:15.678Z,99.90
2022-11-20T20:36:46.221Z,99.90
2022-11-20T20:39:22.081Z,99.90
2022-11-20T20:41:54.249Z,99.90
2022-11-20T20:44:41.711Z,99.90
2022-11-20T20:47:13.555Z,99.90
2022-11-20T20:49:44.361Z,99.90
2022-11-20T20:52:15.780Z,99.90
2022-11-20T20:54:51.574Z,99.90
2022-11-20T20:57:30.167Z,99.90
2022-11-20T21:00:04.452Z,99.90
2022-11-20T21:02:41.743Z,99.90
2022-11-20T21:05:14.731Z,99.90
2022-11-20T21:08:05.665Z,99.90
2022-11-20T21:13:24.744Z,99.90
2022-11-20T21:15:56.301Z,99.90
2022-11-20T21:18:35.105Z,99.90
2022-11-20T21:21:26.092Z,99.90
2022-11-20T21:23:58.666Z,99.90
2022-11-20T21:26:37.513Z,99.90
2022-11-20T21:29:10.215Z,99.90
2022-11-20T21:31:43.876Z,99.90
2022-11-20T21:34:16.433Z,99.90
2022-11-20T21:36:49.920Z,99.90
2022-11-20T21:39:20.687Z,99.90
2022-11-20T21:41:55.537Z,99.90
2022-11-20T21:44:32.773Z,99.90
2022-11-20T21:47:05.620Z,99.90
2022-11-20T21:49:39.194Z,99.90
2022-11-20T21:52:10.325Z,99.90
2022-11-20T21:54:54.968Z,99.90
2022-11-20T21:57:29.887Z,99.90
2022-11-20T22:00:03.981Z,99.90
2022-11-20T22:02:33.245Z,99.90
2022-11-20T22:05:05.670Z,99.90
2022-11-20T22:07:35.999Z,99.90
2022-11-20T22:10:07.162Z,99.90
2022-11-20T22:12:39.397Z,99.90
2022-11-20T22:15:14.034Z,99.90
2022-11-20T22:18:01.022Z,99.90
2022-11-20T22:20:32.457Z,99.90
2022-11-20T22:23:05.808Z,99.90
2022-11-20T22:25:37.963Z,99.90
2022-11-20T22:28:10.424Z,99.90
2022-11-20T22:30:39.391Z,99.90
2022-11-20T22:33:14.016Z,99.90
2022-11-20T22:35:47.389Z,99.90
2022-11-20T22:38:17.751Z,99.90
2022-11-20T22:40:48.735Z,99.90
2022-11-20T22:43:34.494Z,99.90
2022-11-20T22:46:12.747Z,99.90
2022-11-20T22:48:44.043Z,99.90
2022-11-20T22:51:20.806Z,99.90
2022-11-20T22:53:53.204Z,99.90
2022-11-20T22:56:28.546Z,99.90
2022-11-20T22:59:06.663Z,99.90
2022-11-20T23:01:40.890Z,99.90
2022-11-20T23:04:18.979Z,99.90
2022-11-20T23:06:57.252Z,99.90
2022-11-20T23:09:31.333Z,99.90
2022-11-20T23:12:02.915Z,99.90
2022-11-20T23:14:40.477Z,99.90
2022-11-20T23:17:13.010Z,99.90
2022-11-20T23:19:45.035Z,99.90
2022-11-20T23:22:27.178Z,99.90
2022-11-20T23:25:08.602Z,99.90
2022-11-20T23:28:10.863Z,99.90
2022-11-20T23:30:56.820Z,99.90
2022-11-20T23:33:26.223Z,99.90
2022-11-20T23:35:58.028Z,99.90
2022-11-20T23:41:15.948Z,99.90
2022-11-20T23:43:51.968Z,99.90
2022-11-20T23:46:27.095Z,99.90
2022-11-20T23:49:20.269Z,99.90
2022-11-20T23:51:53.636Z,99.90
2022-11-20T23:54:26.278Z,99.90
2022-11-20T23:57:10.649Z,99.90
2022-11-20T23:59:44.300Z,99.90
